Time;durP1;ratioP1;P1;durP2;ratioP2;P2;SDS_P1;SDS_P2;PMS_P1;PMS_P2;Temp;Humidity;BMP_temperature;BMP_pressure;BME280_temperature;BME280_humidity;BME280_pressure;Samples;Min_cycle;Max_cycle;Signal;HPM_P1;HPM_P2
2022/03/29 00:01:55;;;;;;;15.67;10.80;;;13.00;36.50;;;;;;5096907;28;20754;-45
2022/03/29 00:04:22;;;;;;;11.17;10.07;;;12.90;36.40;;;;;;5095234;28;20427;-46
2022/03/29 00:06:48;;;;;;;11.30;10.20;;;13.00;36.50;;;;;;5096584;28;20412;-46
2022/03/29 00:09:14;;;;;;;11.97;10.67;;;12.90;36.40;;;;;;5096077;28;20434;-46
2022/03/29 00:11:39;;;;;;;11.50;10.30;;;12.90;36.40;;;;;;5097510;28;20418;-46
2022/03/29 00:14:06;;;;;;;12.23;10.13;;;12.90;36.40;;;;;;5096217;28;20189;-46
2022/03/29 00:16:32;;;;;;;13.50;10.70;;;12.90;36.40;;;;;;5096998;28;20545;-46
2022/03/29 00:18:58;;;;;;;13.47;9.77;;;12.80;36.40;;;;;;5095485;28;20523;-45
2022/03/29 00:21:24;;;;;;;16.23;10.00;;;12.80;36.40;;;;;;5096865;28;20748;-45
2022/03/29 00:23:50;;;;;;;11.80;10.63;;;12.80;36.40;;;;;;5096811;28;20524;-45
2022/03/29 00:26:16;;;;;;;11.50;10.30;;;12.80;36.40;;;;;;5096628;28;20414;-46
2022/03/29 00:28:42;;;;;;;12.43;11.03;;;12.80;36.40;;;;;;5095197;28;20185;-46
2022/03/29 00:31:11;;;;;;;12.67;11.23;;;12.70;36.30;;;;;;5097012;28;20832;-45
2022/03/29 00:33:37;;;;;;;11.70;9.40;;;12.70;36.30;;;;;;5094529;28;20523;-46
2022/03/29 00:36:03;;;;;;;11.80;10.20;;;12.70;36.70;;;;;;5096162;28;20571;-46
2022/03/29 00:38:29;;;;;;;10.80;9.30;;;12.70;36.30;;;;;;5095331;28;20447;-45
2022/03/29 00:40:55;;;;;;;12.90;10.57;;;12.70;36.40;;;;;;5097002;28;20418;-46
2022/03/29 00:43:21;;;;;;;10.90;9.63;;;12.70;36.50;;;;;;5094975;28;20415;-45
2022/03/29 00:45:46;;;;;;;13.00;10.67;;;12.60;36.50;;;;;;5097533;28;20206;-45
2022/03/29 00:48:13;;;;;;;9.50;8.37;;;12.60;36.70;;;;;;5096003;28;20256;-46
2022/03/29 00:50:40;;;;;;;11.87;10.50;;;12.60;36.80;;;;;;5096586;28;20234;-45
2022/03/29 00:53:07;;;;;;;11.20;9.80;;;12.60;36.90;;;;;;5112694;28;20458;-46
2022/03/29 00:55:33;;;;;;;11.73;9.43;;;12.50;37.00;;;;;;5095884;28;20539;-46
2022/03/29 00:58:02;;;;;;;13.40;10.60;;;12.50;37.20;;;;;;5100113;28;20491;-46
2022/03/29 01:00:31;;;;;;;12.00;10.17;;;12.50;37.30;;;;;;5116222;28;20357;-46
2022/03/29 01:02:58;;;;;;;11.10;9.70;;;12.40;37.40;;;;;;5100219;28;20415;-46
2022/03/29 01:05:24;;;;;;;11.40;10.07;;;12.40;37.50;;;;;;5098558;28;20436;-45
2022/03/29 01:07:50;;;;;;;15.33;11.20;;;12.40;37.70;;;;;;5099957;28;20430;-45
2022/03/29 01:10:15;;;;;;;12.63;11.40;;;12.30;37.80;;;;;;5099451;28;20430;-46
2022/03/29 01:12:41;;;;;;;12.90;10.90;;;12.30;37.80;;;;;;5100262;28;20204;-46
2022/03/29 01:15:10;;;;;;;12.13;10.70;;;12.30;37.90;;;;;;5097520;28;20181;-46
2022/03/29 01:17:39;;;;;;;11.13;9.30;;;12.30;38.00;;;;;;5099378;28;20591;-45
2022/03/29 01:20:09;;;;;;;11.63;10.37;;;12.20;38.00;;;;;;5099078;28;20445;-45
2022/03/29 01:22:36;;;;;;;11.93;9.50;;;12.20;38.10;;;;;;5100296;28;20409;-46
2022/03/29 01:25:02;;;;;;;13.17;10.37;;;12.20;38.10;;;;;;5097750;28;20434;-45
2022/03/29 01:27:31;;;;;;;10.80;9.70;;;12.20;38.20;;;;;;5099712;28;20552;-45
2022/03/29 01:29:59;;;;;;;14.23;11.30;;;12.20;38.30;;;;;;5097878;28;20207;-46
2022/03/29 01:32:29;;;;;;;11.50;10.30;;;12.10;38.30;;;;;;5098331;28;20431;-45
2022/03/29 01:34:57;;;;;;;14.67;10.70;;;12.10;38.40;;;;;;5098087;28;20740;-45
2022/03/29 01:37:23;;;;;;;13.50;10.77;;;12.10;38.50;;;;;;5098459;28;20478;-45
2022/03/29 01:39:49;;;;;;;13.93;9.90;;;12.10;38.50;;;;;;5098754;28;20431;-45
2022/03/29 01:42:15;;;;;;;11.30;10.10;;;12.10;38.50;;;;;;5099232;28;20437;-45
2022/03/29 01:44:40;;;;;;;10.70;9.60;;;12.00;38.40;;;;;;5098690;28;20550;-45
2022/03/29 01:47:07;;;;;;;12.00;9.40;;;12.00;38.50;;;;;;5098085;28;20197;-45
2022/03/29 01:49:33;;;;;;;12.40;11.10;;;12.00;38.50;;;;;;5099047;28;20415;-45
2022/03/29 01:51:59;;;;;;;11.07;9.93;;;12.00;38.60;;;;;;5098370;28;20753;-45
2022/03/29 01:54:24;;;;;;;14.57;10.57;;;12.00;38.70;;;;;;5098353;28;20418;-45
2022/03/29 01:56:50;;;;;;;11.57;10.37;;;11.90;38.60;;;;;;5097840;28;20216;-46
2022/03/29 01:59:16;;;;;;;13.90;11.27;;;11.90;38.60;;;;;;5099397;28;20527;-46
2022/03/29 02:01:43;;;;;;;12.23;10.93;;;11.90;38.70;;;;;;5097131;28;20577;-45
2022/03/29 02:04:08;;;;;;;12.20;10.70;;;11.90;38.80;;;;;;5098839;28;20196;-46
2022/03/29 02:06:34;;;;;;;15.10;11.10;;;11.90;38.70;;;;;;5096800;28;20466;-46
2022/03/29 02:09:00;;;;;;;11.50;10.30;;;11.90;38.70;;;;;;5098409;28;20511;-46
2022/03/29 02:11:26;;;;;;;13.00;10.73;;;11.80;38.60;;;;;;5097047;28;20185;-46
2022/03/29 02:13:53;;;;;;;11.43;10.30;;;11.80;39.20;;;;;;5097852;28;20554;-45
2022/03/29 02:16:19;;;;;;;12.60;9.50;;;11.80;38.80;;;;;;5098799;28;20422;-45
2022/03/29 02:18:44;;;;;;;11.70;9.90;;;11.80;38.90;;;;;;5097728;28;20502;-45
2022/03/29 02:21:14;;;;;;;13.50;10.53;;;11.80;39.10;;;;;;5098345;28;20188;-45
2022/03/29 02:23:40;;;;;;;12.10;10.90;;;11.70;39.20;;;;;;5097892;28;20177;-45
2022/03/29 02:26:06;;;;;;;13.90;10.67;;;11.70;39.70;;;;;;5098725;28;20423;-45
2022/03/29 02:28:31;;;;;;;12.90;11.50;;;11.60;39.30;;;;;;5098333;28;20784;-45
2022/03/29 02:30:57;;;;;;;12.13;10.83;;;11.60;39.40;;;;;;5099431;28;20185;-45
2022/03/29 02:33:22;;;;;;;15.13;10.83;;;11.60;39.40;;;;;;5097872;28;20196;-45
2022/03/29 02:35:48;;;;;;;10.60;9.50;;;11.60;39.50;;;;;;5097654;28;20683;-45
2022/03/29 02:38:16;;;;;;;12.50;10.30;;;11.60;39.60;;;;;;5096907;28;20211;-46
2022/03/29 02:40:42;;;;;;;13.43;11.43;;;11.50;39.70;;;;;;5097636;28;20223;-46
2022/03/29 02:43:07;;;;;;;13.50;10.73;;;11.50;39.80;;;;;;5097860;28;20423;-44
2022/03/29 02:45:33;;;;;;;14.57;12.30;;;11.50;39.90;;;;;;5098959;28;20294;-45
2022/03/29 02:47:59;;;;;;;12.40;10.63;;;11.50;40.00;;;;;;5096961;28;20463;-45
2022/03/29 02:50:26;;;;;;;13.60;11.80;;;11.50;39.90;;;;;;5113541;28;20172;-46
2022/03/29 02:52:54;;;;;;;12.43;11.10;;;11.50;39.80;;;;;;5097831;28;20181;-45
2022/03/29 02:55:21;;;;;;;11.50;10.33;;;11.40;39.60;;;;;;5114420;28;20424;-45
2022/03/29 02:57:47;;;;;;;11.10;10.00;;;11.40;39.50;;;;;;5095317;28;20475;-45
2022/03/29 03:00:15;;;;;;;14.70;11.63;;;11.40;39.30;;;;;;5098358;28;20440;-46
2022/03/29 03:02:45;;;;;;;12.53;10.43;;;11.40;39.10;;;;;;5097715;28;20454;-46
2022/03/29 03:05:11;;;;;;;13.83;11.40;;;11.40;39.10;;;;;;5097229;28;20438;-45
2022/03/29 03:07:41;;;;;;;12.50;11.23;;;11.40;39.00;;;;;;5098257;28;20411;-46
2022/03/29 03:10:07;;;;;;;11.90;10.30;;;11.40;38.80;;;;;;5095999;28;20216;-46
2022/03/29 03:12:37;;;;;;;13.63;11.40;;;11.40;38.70;;;;;;5097791;28;20525;-45
2022/03/29 03:15:03;;;;;;;12.33;11.13;;;11.40;38.60;;;;;;5097013;28;20709;-45
2022/03/29 03:17:29;;;;;;;14.17;10.53;;;11.40;38.90;;;;;;5097979;28;20477;-45
2022/03/29 03:19:55;;;;;;;14.57;11.57;;;11.40;38.40;;;;;;5096283;28;20518;-45
2022/03/29 03:22:20;;;;;;;11.60;10.37;;;11.40;38.30;;;;;;5096690;28;20234;-45
2022/03/29 03:24:46;;;;;;;13.43;11.43;;;11.40;38.30;;;;;;5095402;28;20181;-45
2022/03/29 03:27:12;;;;;;;13.67;11.73;;;11.40;38.30;;;;;;5101784;28;20190;-47
2022/03/29 03:29:37;;;;;;;14.37;12.77;;;11.40;38.20;;;;;;5117259;28;20199;-45
2022/03/29 03:32:04;;;;;;;12.77;11.47;;;11.30;38.10;;;;;;5118520;28;20409;-46
2022/03/29 03:34:29;;;;;;;11.93;10.73;;;11.40;38.20;;;;;;5117778;28;20196;-46
2022/03/29 03:36:56;;;;;;;11.40;10.20;;;11.40;38.20;;;;;;5117343;28;20736;-46
2022/03/29 03:39:22;;;;;;;15.00;11.07;;;11.40;38.20;;;;;;5115333;28;20175;-46
2022/03/29 03:41:48;;;;;;;12.93;10.93;;;11.30;38.20;;;;;;5115991;28;20407;-46
2022/03/29 03:44:14;;;;;;;12.87;11.57;;;11.30;38.30;;;;;;5115186;28;20417;-46
2022/03/29 03:46:41;;;;;;;11.37;10.13;;;11.30;38.30;;;;;;5115975;28;20565;-46
2022/03/29 03:49:06;;;;;;;12.77;11.40;;;11.30;38.40;;;;;;5116051;28;20592;-46
2022/03/29 03:51:33;;;;;;;12.43;11.17;;;11.30;38.50;;;;;;5115084;28;20433;-46
2022/03/29 03:53:59;;;;;;;12.87;11.57;;;11.20;38.70;;;;;;5114787;28;20735;-45
2022/03/29 03:56:25;;;;;;;16.63;11.17;;;11.20;38.90;;;;;;5113855;28;20470;-46
2022/03/29 03:58:50;;;;;;;12.23;10.67;;;11.20;39.00;;;;;;5112992;28;20468;-45
2022/03/29 04:01:16;;;;;;;12.27;10.97;;;11.20;39.10;;;;;;5112490;28;20507;-46
2022/03/29 04:03:41;;;;;;;14.10;12.23;;;11.10;39.10;;;;;;5113641;28;20172;-47
2022/03/29 04:06:07;;;;;;;12.77;11.47;;;11.10;39.20;;;;;;5110934;28;20188;-47
2022/03/29 04:08:32;;;;;;;14.00;11.97;;;11.10;39.30;;;;;;5111525;28;20172;-47
2022/03/29 04:10:59;;;;;;;10.90;9.80;;;11.10;39.40;;;;;;5111526;28;20643;-47
2022/03/29 04:13:26;;;;;;;11.60;10.43;;;11.10;39.40;;;;;;5113942;28;20191;-47
2022/03/29 04:15:51;;;;;;;13.77;10.77;;;11.10;39.40;;;;;;5115139;28;20497;-47
2022/03/29 04:18:18;;;;;;;14.50;12.73;;;11.10;39.40;;;;;;5112658;28;20458;-47
2022/03/29 04:20:44;;;;;;;13.07;11.60;;;11.10;39.50;;;;;;5113636;28;20319;-47
2022/03/29 04:23:09;;;;;;;13.27;11.73;;;11.00;39.50;;;;;;5111091;28;20473;-47
2022/03/29 04:25:36;;;;;;;13.43;11.60;;;11.00;39.60;;;;;;5111702;28;20450;-47
2022/03/29 04:28:02;;;;;;;12.30;10.70;;;11.00;39.70;;;;;;5110728;28;20181;-47
2022/03/29 04:30:28;;;;;;;14.50;11.87;;;11.00;39.70;;;;;;5109661;28;20422;-47
2022/03/29 04:32:54;;;;;;;12.37;11.17;;;10.90;39.80;;;;;;5116108;28;20452;-47
2022/03/29 04:35:20;;;;;;;15.20;12.77;;;10.90;40.00;;;;;;5113820;28;20177;-48
2022/03/29 04:37:46;;;;;;;14.30;12.50;;;10.90;40.20;;;;;;5114089;28;20468;-47
2022/03/29 04:40:12;;;;;;;13.17;11.47;;;10.90;40.30;;;;;;5115749;28;20213;-47
2022/03/29 04:42:45;;;;;;;13.37;11.60;;;10.90;40.40;;;;;;5116026;28;20425;-47
2022/03/29 04:45:12;;;;;;;14.10;11.73;;;10.80;40.40;;;;;;5115812;28;20426;-47
2022/03/29 04:47:41;;;;;;;13.50;11.60;;;10.80;40.60;;;;;;5116563;28;20424;-47
2022/03/29 04:50:08;;;;;;;14.00;11.57;;;10.80;40.60;;;;;;5112800;28;20527;-47
2022/03/29 04:52:34;;;;;;;12.87;11.53;;;10.80;40.60;;;;;;5113868;28;20419;-47
2022/03/29 04:55:00;;;;;;;11.70;10.50;;;10.70;40.70;;;;;;5112405;28;20429;-47
2022/03/29 04:57:26;;;;;;;13.90;11.13;;;10.70;40.80;;;;;;5112123;28;20315;-47
2022/03/29 04:59:52;;;;;;;13.10;11.70;;;10.70;40.90;;;;;;5112257;28;20521;-47
2022/03/29 05:02:17;;;;;;;12.97;11.33;;;10.70;40.90;;;;;;5113933;28;20171;-47
2022/03/29 05:04:44;;;;;;;12.57;11.27;;;10.60;41.00;;;;;;5111653;28;20217;-47
2022/03/29 05:07:10;;;;;;;14.43;11.30;;;10.60;41.10;;;;;;5113668;28;20292;-47
2022/03/29 05:09:37;;;;;;;15.27;11.73;;;10.60;41.20;;;;;;5111646;28;20547;-47
2022/03/29 05:12:03;;;;;;;18.70;12.10;;;10.60;41.30;;;;;;5112759;28;20421;-47
2022/03/29 05:14:29;;;;;;;14.43;12.80;;;10.60;41.40;;;;;;5110653;28;20453;-47
2022/03/29 05:16:55;;;;;;;20.10;12.83;;;10.50;41.50;;;;;;5111707;28;20530;-47
2022/03/29 05:19:21;;;;;;;14.97;13.10;;;10.50;41.80;;;;;;5111073;28;20804;-48
2022/03/29 05:21:47;;;;;;;16.77;13.03;;;10.50;41.90;;;;;;5113151;28;20179;-47
2022/03/29 05:24:13;;;;;;;13.93;12.57;;;10.50;42.00;;;;;;5114114;28;20454;-47
2022/03/29 05:26:40;;;;;;;14.83;13.13;;;10.50;41.80;;;;;;5116126;28;20905;-47
2022/03/29 05:29:06;;;;;;;13.40;12.00;;;10.50;41.80;;;;;;5114190;28;20435;-47
2022/03/29 05:31:32;;;;;;;15.43;13.57;;;10.50;41.80;;;;;;5109137;28;20437;-47
2022/03/29 05:33:59;;;;;;;14.33;12.60;;;10.50;41.80;;;;;;5113591;28;20504;-47
2022/03/29 05:36:25;;;;;;;14.97;13.40;;;10.60;41.90;;;;;;5114413;28;20486;-47
2022/03/29 05:38:52;;;;;;;18.73;13.20;;;10.60;42.00;;;;;;5113582;28;20539;-39
2022/03/29 05:41:21;;;;;;;19.10;13.90;;;10.60;41.90;;;;;;5112489;28;20282;-40
2022/03/29 05:43:48;;;;;;;16.20;13.13;;;10.60;41.90;;;;;;5111228;28;20426;-39
2022/03/29 05:48:59;;;;;;;13.60;12.20;;;10.70;42.00;;;;;;5112538;28;20924;-43
2022/03/29 05:51:26;;;;;;;14.30;12.90;;;10.70;42.00;;;;;;5110880;28;20770;-39
2022/03/29 05:53:53;;;;;;;13.90;12.50;;;10.80;42.00;;;;;;5111252;28;20439;-40
2022/03/29 05:56:19;;;;;;;15.30;13.40;;;10.80;42.00;;;;;;5113019;28;20875;-40
2022/03/29 05:58:45;;;;;;;15.27;13.70;;;10.90;42.00;;;;;;5113831;28;20552;-40
2022/03/29 06:01:11;;;;;;;14.33;12.80;;;10.90;42.00;;;;;;5115025;28;20180;-42
2022/03/29 06:03:37;;;;;;;15.63;12.93;;;10.90;42.00;;;;;;5110433;28;20663;-38
2022/03/29 06:06:02;;;;;;;16.57;13.67;;;11.00;42.00;;;;;;5110394;28;20417;-40
2022/03/29 06:08:29;;;;;;;16.27;14.43;;;11.10;42.10;;;;;;5110010;28;20244;-39
2022/03/29 06:10:55;;;;;;;14.90;13.43;;;11.10;42.00;;;;;;5095453;28;20207;-41
2022/03/29 06:13:21;;;;;;;19.40;14.13;;;11.20;42.00;;;;;;5094533;28;20878;-40
2022/03/29 06:15:46;;;;;;;16.70;13.60;;;11.20;41.80;;;;;;5093934;28;20507;-40
2022/03/29 06:18:12;;;;;;;14.57;13.07;;;11.30;41.80;;;;;;5093820;28;20455;-40
2022/03/29 06:20:39;;;;;;;19.27;13.13;;;11.40;41.70;;;;;;5098295;28;20195;-39
2022/03/29 06:23:04;;;;;;;17.53;13.50;;;11.50;41.60;;;;;;5092402;28;20450;-40
2022/03/29 06:25:32;;;;;;;17.93;13.50;;;11.60;41.50;;;;;;5092871;28;20791;-39
2022/03/29 06:27:58;;;;;;;16.37;13.20;;;11.70;41.50;;;;;;5090655;28;20474;-41
2022/03/29 06:30:24;;;;;;;17.77;14.13;;;11.80;41.40;;;;;;5091794;28;20403;-40
2022/03/29 06:32:53;;;;;;;15.63;13.93;;;11.90;41.40;;;;;;5092843;28;20437;-39
2022/03/29 06:35:24;;;;;;;15.30;13.30;;;12.00;41.30;;;;;;5092919;28;20504;-44
2022/03/29 06:37:51;;;;;;;15.10;12.77;;;12.10;41.20;;;;;;5093685;28;20474;-40
2022/03/29 06:40:17;;;;;;;16.70;13.83;;;12.20;41.00;;;;;;5093166;28;20414;-40
2022/03/29 06:42:43;;;;;;;17.00;13.67;;;12.30;40.90;;;;;;5089359;28;20431;-40
2022/03/29 06:45:10;;;;;;;16.40;13.80;;;12.40;40.70;;;;;;5090980;28;20438;-40
2022/03/29 06:47:35;;;;;;;16.40;13.40;;;12.50;40.50;;;;;;5090404;28;20423;-43
2022/03/29 06:50:03;;;;;;;17.20;13.73;;;12.60;40.40;;;;;;5090012;28;20890;-38
2022/03/29 06:52:34;;;;;;;17.90;13.60;;;12.70;40.40;;;;;;5090765;28;20434;-40
2022/03/29 06:54:59;;;;;;;15.93;14.33;;;12.80;40.30;;;;;;5089389;28;20447;-40
2022/03/29 06:57:25;;;;;;;16.67;13.80;;;12.90;40.20;;;;;;5089166;28;20529;-40
2022/03/29 06:59:50;;;;;;;15.13;13.53;;;13.00;40.00;;;;;;5092157;28;20177;-39
2022/03/29 07:02:16;;;;;;;15.43;12.70;;;13.10;39.80;;;;;;5091806;28;20561;-40
2022/03/29 07:04:42;;;;;;;15.17;12.93;;;13.20;39.70;;;;;;5093025;28;20178;-42
2022/03/29 07:07:08;;;;;;;14.97;12.97;;;13.40;39.60;;;;;;5090232;28;20540;-40
2022/03/29 07:12:18;;;;;;;14.80;13.30;;;13.60;39.20;;;;;;5088766;28;20237;-40
2022/03/29 07:14:44;;;;;;;16.10;13.10;;;13.80;39.10;;;;;;5087756;28;20875;-40
2022/03/29 07:17:13;;;;;;;16.60;13.70;;;13.90;39.40;;;;;;5086935;28;20463;-41
2022/03/29 07:19:39;;;;;;;15.70;13.60;;;14.00;38.80;;;;;;5088718;28;20264;-41
2022/03/29 07:22:05;;;;;;;15.73;13.57;;;14.20;38.90;;;;;;5086559;28;20557;-41
2022/03/29 07:24:30;;;;;;;15.10;13.57;;;14.30;38.70;;;;;;5089759;28;20572;-40
2022/03/29 07:26:56;;;;;;;14.97;13.37;;;14.40;38.70;;;;;;5093824;28;20209;-41
2022/03/29 07:29:22;;;;;;;19.47;13.70;;;14.60;38.70;;;;;;5083255;28;20203;-41
2022/03/29 07:31:48;;;;;;;16.00;13.10;;;14.70;38.60;;;;;;5092045;28;20840;-40
2022/03/29 07:34:14;;;;;;;17.07;14.23;;;14.90;38.50;;;;;;5091177;28;20479;-42
2022/03/29 07:36:41;;;;;;;15.70;13.33;;;15.00;38.70;;;;;;5094169;28;20692;-39
2022/03/29 07:39:08;;;;;;;15.20;13.37;;;15.20;38.00;;;;;;5093077;28;20231;-40
2022/03/29 07:41:34;;;;;;;15.80;13.37;;;15.30;37.80;;;;;;5092625;28;20486;-39
2022/03/29 07:44:00;;;;;;;15.37;13.67;;;15.40;37.60;;;;;;5092476;28;20441;-40
2022/03/29 07:46:26;;;;;;;16.93;14.20;;;15.60;37.60;;;;;;5094734;28;20196;-40
2022/03/29 07:48:51;;;;;;;19.83;14.90;;;15.80;37.50;;;;;;5096980;28;20436;-40
2022/03/29 07:51:18;;;;;;;16.60;14.03;;;15.90;37.30;;;;;;5097552;28;20444;-41
2022/03/29 07:53:44;;;;;;;14.00;12.70;;;16.10;37.30;;;;;;5097713;28;20196;-40
2022/03/29 07:56:10;;;;;;;14.40;12.93;;;16.30;37.10;;;;;;5100234;28;20465;-41
2022/03/29 07:58:36;;;;;;;17.43;14.27;;;16.50;36.90;;;;;;5096785;28;20515;-40
2022/03/29 08:01:02;;;;;;;15.27;13.67;;;16.70;36.70;;;;;;5098498;28;20185;-40
2022/03/29 08:03:32;;;;;;;16.60;14.57;;;16.90;36.80;;;;;;5098446;28;20181;-41
2022/03/29 08:05:58;;;;;;;17.53;14.50;;;17.20;36.10;;;;;;5099101;28;20446;-42
2022/03/29 08:08:26;;;;;;;16.83;14.57;;;17.40;35.80;;;;;;5096583;28;20442;-41
2022/03/29 08:10:52;;;;;;;21.23;13.97;;;17.70;35.60;;;;;;5098324;28;20498;-40
2022/03/29 08:13:18;;;;;;;15.20;13.70;;;17.80;35.30;;;;;;5097492;28;20527;-42
2022/03/29 08:15:46;;;;;;;15.07;13.57;;;18.10;35.10;;;;;;5100241;28;20500;-42
2022/03/29 08:18:12;;;;;;;14.10;12.63;;;18.40;34.80;;;;;;5096769;28;20693;-42
2022/03/29 08:20:40;;;;;;;14.20;12.17;;;18.60;34.60;;;;;;5095235;28;20427;-41
2022/03/29 08:23:08;;;;;;;13.70;12.30;;;18.80;34.40;;;;;;5093931;28;20216;-42
2022/03/29 08:25:36;;;;;;;14.40;12.87;;;19.00;34.30;;;;;;5098445;28;20407;-40
2022/03/29 08:28:02;;;;;;;13.77;12.20;;;19.10;34.10;;;;;;5096255;28;20510;-41
2022/03/29 08:30:29;;;;;;;13.47;12.20;;;19.10;33.80;;;;;;5096823;28;20894;-41
2022/03/29 08:32:57;;;;;;;15.23;11.63;;;19.20;33.60;;;;;;5098091;28;20434;-39
2022/03/29 08:35:22;;;;;;;11.70;10.30;;;19.20;33.40;;;;;;5098050;28;20425;-41
2022/03/29 08:37:48;;;;;;;6.63;5.30;;;19.10;33.60;;;;;;5095338;28;20485;-44
2022/03/29 08:40:16;;;;;;;5.43;4.73;;;19.20;36.10;;;;;;5097566;28;20614;-42
2022/03/29 08:42:46;;;;;;;9.27;4.67;;;19.40;37.80;;;;;;5096371;28;20533;-44
2022/03/29 08:45:14;;;;;;;4.93;4.43;;;19.60;38.40;;;;;;5096711;28;20498;-43
2022/03/29 08:47:42;;;;;;;5.20;4.70;;;19.90;38.50;;;;;;5099001;28;20531;-45
2022/03/29 08:50:09;;;;;;;5.60;4.70;;;20.20;38.30;;;;;;5096826;28;20912;-42
2022/03/29 08:52:35;;;;;;;7.20;6.13;;;20.60;37.80;;;;;;5099353;28;20450;-42
2022/03/29 08:55:03;;;;;;;7.80;6.70;;;20.90;37.10;;;;;;5100424;28;20435;-42
2022/03/29 08:57:30;;;;;;;7.20;6.50;;;21.20;36.50;;;;;;5099108;28;20906;-43
2022/03/29 08:59:56;;;;;;;7.10;6.50;;;21.50;35.90;;;;;;5099405;28;20437;-42
2022/03/29 09:02:23;;;;;;;8.47;7.43;;;21.70;35.60;;;;;;5098842;28;20701;-41
2022/03/29 09:05:15;;;;;;;8.23;7.43;;;21.90;35.30;;;;;;5101342;28;20432;-43
2022/03/29 09:07:52;;;;;;;7.83;7.03;;;22.20;35.10;;;;;;5102068;28;20419;-43
2022/03/29 09:10:23;;;;;;;9.20;8.30;;;22.30;34.70;;;;;;5099731;28;20898;-43
2022/03/29 09:12:49;;;;;;;8.47;7.70;;;22.50;34.20;;;;;;5105238;28;20428;-43
2022/03/29 09:15:16;;;;;;;8.60;7.80;;;22.70;33.90;;;;;;5098743;28;20436;-45
2022/03/29 09:17:46;;;;;;;11.43;10.33;;;22.90;33.70;;;;;;5097894;28;20225;-42
2022/03/29 09:20:21;;;;;;;11.30;10.30;;;23.10;32.70;;;;;;5099206;28;20433;-45
2022/03/29 09:22:55;;;;;;;10.90;9.90;;;23.30;32.30;;;;;;5096076;28;20419;-44
2022/03/29 09:25:38;;;;;;;12.27;10.00;;;23.40;31.90;;;;;;5094975;28;20499;-44
2022/03/29 09:28:13;;;;;;;11.00;10.10;;;23.50;31.20;;;;;;5090102;28;20440;-41
2022/03/29 09:30:49;;;;;;;11.27;9.70;;;23.60;30.90;;;;;;5088389;28;20826;-47
2022/03/29 09:33:19;;;;;;;11.40;10.30;;;23.70;30.70;;;;;;5091361;28;20929;-45
2022/03/29 09:36:07;;;;;;;12.77;11.57;;;23.80;30.10;;;;;;5090352;28;20455;-42
2022/03/29 09:38:39;;;;;;;12.40;11.20;;;23.90;30.00;;;;;;5091573;28;20755;-44
2022/03/29 09:41:07;;;;;;;12.93;11.63;;;24.00;29.40;;;;;;5092086;28;20502;-44
2022/03/29 09:43:35;;;;;;;13.53;10.27;;;24.10;29.10;;;;;;5090615;28;20447;-40
2022/03/29 09:46:02;;;;;;;11.63;10.63;;;24.30;29.10;;;;;;5092015;28;20839;-42
2022/03/29 09:48:33;;;;;;;11.80;10.63;;;24.30;29.20;;;;;;5090444;28;20439;-44
2022/03/29 09:51:07;;;;;;;12.00;10.80;;;24.40;29.30;;;;;;5092334;28;20732;-42
2022/03/29 09:53:51;;;;;;;12.07;10.80;;;24.40;29.30;;;;;;5093859;28;20432;-42
2022/03/29 09:56:20;;;;;;;12.37;11.13;;;24.40;29.30;;;;;;5094455;28;20512;-42
2022/03/29 09:58:46;;;;;;;12.30;11.17;;;24.50;29.20;;;;;;5093102;28;20855;-43
2022/03/29 10:01:23;;;;;;;13.73;12.47;;;24.50;28.80;;;;;;5116340;27;20720;-41
2022/03/29 10:03:52;;;;;;;12.47;11.20;;;24.50;28.80;;;;;;5109284;27;20436;-40
2022/03/29 10:06:21;;;;;;;14.20;12.90;;;24.50;28.70;;;;;;5099790;28;20949;-42
2022/03/29 10:11:34;;;;;;;12.27;10.97;;;24.60;28.40;;;;;;5100692;28;20420;-41
2022/03/29 10:14:07;;;;;;;13.07;11.87;;;24.70;28.40;;;;;;5099110;28;20694;-40
2022/03/29 10:16:33;;;;;;;13.10;11.90;;;24.90;28.30;;;;;;5097686;28;20450;-43
2022/03/29 10:18:59;;;;;;;11.37;10.37;;;25.10;28.20;;;;;;5095432;28;20843;-44
2022/03/29 10:21:26;;;;;;;12.40;11.30;;;25.30;28.20;;;;;;5088593;28;20420;-45
2022/03/29 10:23:51;;;;;;;13.10;11.67;;;25.40;28.00;;;;;;5100059;28;20567;-41
2022/03/29 10:26:21;;;;;;;13.10;11.90;;;25.60;28.00;;;;;;5096917;28;20461;-42
2022/03/29 10:28:47;;;;;;;12.70;11.60;;;25.90;28.00;;;;;;5096126;28;20187;-41
2022/03/29 10:31:36;;;;;;;12.23;11.03;;;26.10;27.90;;;;;;5098058;28;20433;-39
2022/03/29 10:34:18;;;;;;;12.90;11.50;;;26.30;28.00;;;;;;5094775;28;20438;-41
2022/03/29 10:37:03;;;;;;;16.83;12.93;;;26.30;28.00;;;;;;5102431;28;20473;-43
2022/03/29 10:40:04;;;;;;;12.40;11.20;;;26.30;28.10;;;;;;5107781;28;20428;-41
2022/03/29 10:42:32;;;;;;;12.40;11.30;;;26.40;27.80;;;;;;5097765;28;20516;-43
2022/03/29 10:45:02;;;;;;;13.40;12.10;;;26.50;27.50;;;;;;5110140;28;20585;-41
2022/03/29 10:47:29;;;;;;;14.37;13.07;;;26.50;27.00;;;;;;5112113;28;20398;-41
2022/03/29 10:49:55;;;;;;;13.80;12.50;;;26.50;27.10;;;;;;5111934;28;20436;-41
2022/03/29 10:52:20;;;;;;;14.17;12.97;;;26.40;26.60;;;;;;5110903;28;20417;-42
2022/03/29 10:54:46;;;;;;;14.40;13.10;;;26.40;26.60;;;;;;5108176;28;20190;-41
2022/03/29 10:57:28;;;;;;;15.33;13.80;;;26.50;26.70;;;;;;5109200;28;20200;-39
2022/03/29 11:00:12;;;;;;;15.03;13.27;;;26.50;26.70;;;;;;5107300;28;20428;-41
2022/03/29 11:02:39;;;;;;;13.63;12.27;;;26.50;26.80;;;;;;5110000;28;20769;-42
2022/03/29 11:05:10;;;;;;;13.90;12.40;;;26.60;27.00;;;;;;5109114;28;20833;-43
2022/03/29 11:07:53;;;;;;;13.73;12.53;;;26.60;27.00;;;;;;5110095;28;20490;-39
2022/03/29 11:10:33;;;;;;;14.27;12.90;;;26.50;27.00;;;;;;5107589;28;20422;-44
2022/03/29 11:12:59;;;;;;;13.17;11.80;;;26.50;26.90;;;;;;5107697;28;20917;-43
2022/03/29 11:15:32;;;;;;;13.30;12.10;;;26.50;26.90;;;;;;5107470;28;20418;-45
2022/03/29 11:17:58;;;;;;;14.43;13.13;;;26.40;26.90;;;;;;5111103;28;20734;-39
2022/03/29 11:20:38;;;;;;;15.13;13.73;;;26.40;26.70;;;;;;5108144;28;20449;-40
2022/03/29 11:23:10;;;;;;;12.87;11.77;;;26.20;26.70;;;;;;5108485;28;20279;-41
2022/03/29 11:25:43;;;;;;;13.20;12.10;;;26.20;26.80;;;;;;5111207;28;20844;-40
2022/03/29 11:28:12;;;;;;;14.20;12.73;;;26.20;26.80;;;;;;5109338;28;20409;-41
2022/03/29 11:30:38;;;;;;;13.27;12.07;;;26.30;26.80;;;;;;5108869;28;20510;-41
2022/03/29 11:33:05;;;;;;;14.00;12.10;;;26.40;26.70;;;;;;5108293;28;20805;-42
2022/03/29 11:35:32;;;;;;;12.87;11.77;;;26.50;26.50;;;;;;5103008;28;20573;-42
2022/03/29 11:38:09;;;;;;;13.83;12.63;;;26.60;26.30;;;;;;5107101;28;20882;-41
2022/03/29 11:40:36;;;;;;;12.80;11.70;;;26.60;26.10;;;;;;5102909;28;20837;-42
2022/03/29 11:43:05;;;;;;;15.00;12.00;;;26.60;25.70;;;;;;5106564;28;20420;-39
2022/03/29 11:45:36;;;;;;;13.00;11.80;;;26.50;25.60;;;;;;5106656;28;20517;-42
2022/03/29 11:48:13;;;;;;;12.10;11.03;;;26.40;25.40;;;;;;5105811;28;20444;-42
2022/03/29 11:50:52;;;;;;;13.73;11.47;;;26.30;25.30;;;;;;5106195;28;20921;-41
2022/03/29 11:53:21;;;;;;;12.90;11.90;;;26.30;25.20;;;;;;5106551;28;20747;-40
2022/03/29 11:56:05;;;;;;;14.00;12.70;;;26.20;25.10;;;;;;5106936;28;20437;-40
2022/03/29 11:58:39;;;;;;;13.03;11.93;;;26.10;24.80;;;;;;5109877;28;20405;-41
2022/03/29 12:01:20;;;;;;;12.97;11.90;;;26.10;24.70;;;;;;5108971;28;20425;-41
2022/03/29 12:03:59;;;;;;;12.87;11.60;;;26.00;24.70;;;;;;5109734;28;20452;-40
2022/03/29 12:06:32;;;;;;;16.90;13.40;;;25.90;24.70;;;;;;5109709;28;20433;-40
2022/03/29 12:09:05;;;;;;;12.97;11.77;;;25.80;24.70;;;;;;5107893;28;20934;-40
2022/03/29 12:11:33;;;;;;;13.27;12.00;;;25.70;24.60;;;;;;5109609;28;20529;-40
2022/03/29 12:14:35;;;;;;;12.47;11.47;;;25.50;24.90;;;;;;5104997;28;20418;-41
2022/03/29 12:17:03;;;;;;;13.07;11.93;;;25.40;24.60;;;;;;5108844;28;20759;-40
2022/03/29 12:19:31;;;;;;;11.90;10.93;;;25.30;24.70;;;;;;5112192;28;20412;-43
2022/03/29 12:22:06;;;;;;;13.67;12.03;;;25.20;24.90;;;;;;5110967;28;20436;-42
2022/03/29 12:24:34;;;;;;;12.87;11.77;;;25.10;25.00;;;;;;5111706;28;20468;-40
2022/03/29 12:27:06;;;;;;;12.50;11.37;;;25.10;25.10;;;;;;5110932;28;20431;-43
2022/03/29 12:29:41;;;;;;;13.77;12.47;;;25.20;25.20;;;;;;5109677;28;20472;-40
2022/03/29 12:32:09;;;;;;;13.00;11.80;;;25.30;25.10;;;;;;5110131;28;20436;-41
2022/03/29 12:34:36;;;;;;;12.83;11.60;;;25.30;25.10;;;;;;5108905;28;20437;-42
2022/03/29 12:37:04;;;;;;;13.10;11.90;;;25.30;25.10;;;;;;5106340;28;20499;-42
2022/03/29 12:39:41;;;;;;;12.73;11.60;;;25.10;25.20;;;;;;5108165;28;20429;-40
2022/03/29 12:42:16;;;;;;;13.30;12.13;;;25.10;25.20;;;;;;5109684;28;20510;-42